sensor_id;sensor_type;location;lat;lon;timestamp;P1;durP1;ratioP1;P2;durP2;ratioP2
72123;SDS011;63818;37.134;-8.548;2023-07-31T00:01:16;11.7;;;5.9;;
72123;SDS011;63818;37.134;-8.548;2023-07-31T00:06:02;13.5;;;6.2;;
72123;SDS011;63818;37.134;-8.548;2023-07-31T00:10:50;12.7;;;6.2;;
72123;SDS011;63818;37.134;-8.548;2023-07-31T00:15:36;12.3;;;6.4;;
72123;SDS011;63818;37.134;-8.548;2023-07-31T00:20:23;11.4;;;6.6;;
72123;SDS011;63818;37.134;-8.548;2023-07-31T00:25:09;12.5;;;6.8;;
72123;SDS011;63818;37.134;-8.548;2023-07-31T00:29:55;13.9;;;7.0;;
72123;SDS011;63818;37.134;-8.548;2023-07-31T00:34:40;14.5;;;6.9;;
72123;SDS011;63818;37.134;-8.548;2023-07-31T00:39:26;13.5;;;6.3;;
72123;SDS011;63818;37.134;-8.548;2023-07-31T00:44:12;12.4;;;6.5;;
72123;SDS011;63818;37.134;-8.548;2023-07-31T00:49:01;11.4;;;6.4;;
72123;SDS011;63818;37.134;-8.548;2023-07-31T00:53:49;11.3;;;6.0;;
72123;SDS011;63818;37.134;-8.548;2023-07-31T00:58:35;16.2;;;6.4;;
72123;SDS011;63818;37.134;-8.548;2023-07-31T01:03:21;16.2;;;6.0;;
72123;SDS011;63818;37.134;-8.548;2023-07-31T01:08:09;12.5;;;5.7;;
72123;SDS011;63818;37.134;-8.548;2023-07-31T01:13:01;10.5;;;5.8;;
72123;SDS011;63818;37.134;-8.548;2023-07-31T01:17:49;12.5;;;6.4;;
72123;SDS011;63818;37.134;-8.548;2023-07-31T01:22:39;14.3;;;6.6;;
72123;SDS011;63818;37.134;-8.548;2023-07-31T01:27:35;12.2;;;6.2;;
72123;SDS011;63818;37.134;-8.548;2023-07-31T01:32:28;10.8;;;6.1;;
72123;SDS011;63818;37.134;-8.548;2023-07-31T01:37:15;9.4;;;6.0;;
72123;SDS011;63818;37.134;-8.548;2023-07-31T01:42:01;11.9;;;6.2;;
72123;SDS011;63818;37.134;-8.548;2023-07-31T01:46:47;13.5;;;6.4;;
72123;SDS011;63818;37.134;-8.548;2023-07-31T01:51:33;12.0;;;6.0;;
72123;SDS011;63818;37.134;-8.548;2023-07-31T01:56:20;11.4;;;5.9;;
72123;SDS011;63818;37.134;-8.548;2023-07-31T02:01:06;10.3;;;6.1;;
72123;SDS011;63818;37.134;-8.548;2023-07-31T02:05:53;10.2;;;6.1;;
72123;SDS011;63818;37.134;-8.548;2023-07-31T02:10:40;12.9;;;6.4;;
72123;SDS011;63818;37.134;-8.548;2023-07-31T02:15:26;11.7;;;6.1;;
72123;SDS011;63818;37.134;-8.548;2023-07-31T02:20:12;9.1;;;5.7;;
72123;SDS011;63818;37.134;-8.548;2023-07-31T02:24:58;9.7;;;5.7;;
72123;SDS011;63818;37.134;-8.548;2023-07-31T02:29:44;9.3;;;5.6;;
72123;SDS011;63818;37.134;-8.548;2023-07-31T02:34:30;8.8;;;5.8;;
72123;SDS011;63818;37.134;-8.548;2023-07-31T02:39:16;9.1;;;6.0;;
72123;SDS011;63818;37.134;-8.548;2023-07-31T02:44:01;11.5;;;5.6;;
72123;SDS011;63818;37.134;-8.548;2023-07-31T02:48:47;12.6;;;5.6;;
72123;SDS011;63818;37.134;-8.548;2023-07-31T02:53:33;11.1;;;5.8;;
72123;SDS011;63818;37.134;-8.548;2023-07-31T02:58:20;9.9;;;5.7;;
72123;SDS011;63818;37.134;-8.548;2023-07-31T03:03:06;9.3;;;5.7;;
72123;SDS011;63818;37.134;-8.548;2023-07-31T03:07:52;9.3;;;5.7;;
72123;SDS011;63818;37.134;-8.548;2023-07-31T03:12:37;9.3;;;5.9;;
72123;SDS011;63818;37.134;-8.548;2023-07-31T03:17:24;9.3;;;6.0;;
72123;SDS011;63818;37.134;-8.548;2023-07-31T03:22:09;8.9;;;5.8;;
72123;SDS011;63818;37.134;-8.548;2023-07-31T03:26:55;9.2;;;5.8;;
72123;SDS011;63818;37.134;-8.548;2023-07-31T03:31:41;11.0;;;5.9;;
72123;SDS011;63818;37.134;-8.548;2023-07-31T03:36:27;11.8;;;6.0;;
72123;SDS011;63818;37.134;-8.548;2023-07-31T03:41:13;10.2;;;6.0;;
72123;SDS011;63818;37.134;-8.548;2023-07-31T03:46:00;11.1;;;5.9;;
72123;SDS011;63818;37.134;-8.548;2023-07-31T03:50:46;11.0;;;5.8;;
72123;SDS011;63818;37.134;-8.548;2023-07-31T03:55:31;8.9;;;5.5;;
72123;SDS011;63818;37.134;-8.548;2023-07-31T04:00:17;9.1;;;5.7;;
72123;SDS011;63818;37.134;-8.548;2023-07-31T04:05:03;9.6;;;6.0;;
72123;SDS011;63818;37.134;-8.548;2023-07-31T04:09:50;9.4;;;5.8;;
72123;SDS011;63818;37.134;-8.548;2023-07-31T04:14:35;9.8;;;5.6;;
72123;SDS011;63818;37.134;-8.548;2023-07-31T04:19:22;10.9;;;5.8;;
72123;SDS011;63818;37.134;-8.548;2023-07-31T04:24:08;10.6;;;5.8;;
72123;SDS011;63818;37.134;-8.548;2023-07-31T04:28:54;10.1;;;5.8;;
72123;SDS011;63818;37.134;-8.548;2023-07-31T04:33:40;10.5;;;5.7;;
72123;SDS011;63818;37.134;-8.548;2023-07-31T04:38:26;9.4;;;5.6;;
72123;SDS011;63818;37.134;-8.548;2023-07-31T04:43:12;8.4;;;5.5;;
72123;SDS011;63818;37.134;-8.548;2023-07-31T04:47:58;9.1;;;5.6;;
72123;SDS011;63818;37.134;-8.548;2023-07-31T04:52:43;9.9;;;5.7;;
72123;SDS011;63818;37.134;-8.548;2023-07-31T04:57:29;9.7;;;5.6;;
72123;SDS011;63818;37.134;-8.548;2023-07-31T05:02:15;8.5;;;5.4;;
72123;SDS011;63818;37.134;-8.548;2023-07-31T05:07:04;8.4;;;5.6;;
72123;SDS011;63818;37.134;-8.548;2023-07-31T05:11:50;8.5;;;5.6;;
72123;SDS011;63818;37.134;-8.548;2023-07-31T05:16:36;8.8;;;5.4;;
72123;SDS011;63818;37.134;-8.548;2023-07-31T05:21:22;11.1;;;5.6;;
72123;SDS011;63818;37.134;-8.548;2023-07-31T05:26:08;12.0;;;5.9;;
72123;SDS011;63818;37.134;-8.548;2023-07-31T05:31:00;10.1;;;5.6;;
72123;SDS011;63818;37.134;-8.548;2023-07-31T05:35:46;9.5;;;5.2;;
72123;SDS011;63818;37.134;-8.548;2023-07-31T05:40:33;9.4;;;5.3;;
72123;SDS011;63818;37.134;-8.548;2023-07-31T05:45:19;8.9;;;5.2;;
72123;SDS011;63818;37.134;-8.548;2023-07-31T05:50:05;9.1;;;5.1;;
72123;SDS011;63818;37.134;-8.548;2023-07-31T05:54:51;8.9;;;5.3;;
72123;SDS011;63818;37.134;-8.548;2023-07-31T05:59:37;8.0;;;5.0;;
72123;SDS011;63818;37.134;-8.548;2023-07-31T06:04:24;8.5;;;5.0;;
72123;SDS011;63818;37.134;-8.548;2023-07-31T06:09:10;9.0;;;5.4;;
72123;SDS011;63818;37.134;-8.548;2023-07-31T06:13:55;8.0;;;5.1;;
72123;SDS011;63818;37.134;-8.548;2023-07-31T06:18:41;7.9;;;4.9;;
72123;SDS011;63818;37.134;-8.548;2023-07-31T06:23:27;9.7;;;5.2;;
72123;SDS011;63818;37.134;-8.548;2023-07-31T06:28:13;11.9;;;5.7;;
72123;SDS011;63818;37.134;-8.548;2023-07-31T06:32:59;10.6;;;5.7;;
72123;SDS011;63818;37.134;-8.548;2023-07-31T06:37:45;8.7;;;5.3;;
72123;SDS011;63818;37.134;-8.548;2023-07-31T06:42:31;10.4;;;5.9;;
72123;SDS011;63818;37.134;-8.548;2023-07-31T06:47:17;10.9;;;6.0;;
72123;SDS011;63818;37.134;-8.548;2023-07-31T06:52:03;8.9;;;5.2;;
72123;SDS011;63818;37.134;-8.548;2023-07-31T06:56:49;8.1;;;5.2;;
72123;SDS011;63818;37.134;-8.548;2023-07-31T07:01:35;8.4;;;5.3;;
72123;SDS011;63818;37.134;-8.548;2023-07-31T07:06:21;9.8;;;5.4;;
72123;SDS011;63818;37.134;-8.548;2023-07-31T07:11:08;12.9;;;5.5;;
72123;SDS011;63818;37.134;-8.548;2023-07-31T07:15:54;11.5;;;5.4;;
72123;SDS011;63818;37.134;-8.548;2023-07-31T07:20:40;9.5;;;5.3;;
72123;SDS011;63818;37.134;-8.548;2023-07-31T07:25:26;9.4;;;5.2;;
72123;SDS011;63818;37.134;-8.548;2023-07-31T07:30:12;8.9;;;5.2;;
72123;SDS011;63818;37.134;-8.548;2023-07-31T07:34:58;8.7;;;5.2;;
72123;SDS011;63818;37.134;-8.548;2023-07-31T07:39:44;9.8;;;5.1;;
72123;SDS011;63818;37.134;-8.548;2023-07-31T07:44:32;10.2;;;5.3;;
72123;SDS011;63818;37.134;-8.548;2023-07-31T07:49:18;11.3;;;5.3;;
72123;SDS011;63818;37.134;-8.548;2023-07-31T07:54:04;11.8;;;5.5;;
72123;SDS011;63818;37.134;-8.548;2023-07-31T07:58:51;9.7;;;5.6;;
72123;SDS011;63818;37.134;-8.548;2023-07-31T08:03:36;9.9;;;5.7;;
72123;SDS011;63818;37.134;-8.548;2023-07-31T08:08:25;10.5;;;5.5;;
72123;SDS011;63818;37.134;-8.548;2023-07-31T08:13:11;10.5;;;5.4;;
72123;SDS011;63818;37.134;-8.548;2023-07-31T08:17:57;9.5;;;5.5;;
72123;SDS011;63818;37.134;-8.548;2023-07-31T08:22:45;9.1;;;5.3;;
72123;SDS011;63818;37.134;-8.548;2023-07-31T08:27:31;10.3;;;5.5;;
72123;SDS011;63818;37.134;-8.548;2023-07-31T08:32:17;10.6;;;5.5;;
72123;SDS011;63818;37.134;-8.548;2023-07-31T08:37:06;11.1;;;5.9;;
72123;SDS011;63818;37.134;-8.548;2023-07-31T08:41:52;11.6;;;5.8;;
72123;SDS011;63818;37.134;-8.548;2023-07-31T08:46:47;11.9;;;5.4;;
72123;SDS011;63818;37.134;-8.548;2023-07-31T08:51:35;11.9;;;5.5;;
72123;SDS011;63818;37.134;-8.548;2023-07-31T08:56:22;10.7;;;5.7;;
72123;SDS011;63818;37.134;-8.548;2023-07-31T09:01:11;10.3;;;5.7;;
72123;SDS011;63818;37.134;-8.548;2023-07-31T09:05:58;9.1;;;5.4;;
72123;SDS011;63818;37.134;-8.548;2023-07-31T09:10:44;9.1;;;5.4;;
72123;SDS011;63818;37.134;-8.548;2023-07-31T09:15:31;12.0;;;5.7;;
72123;SDS011;63818;37.134;-8.548;2023-07-31T09:20:18;11.3;;;5.6;;
72123;SDS011;63818;37.134;-8.548;2023-07-31T09:25:09;8.4;;;5.2;;
72123;SDS011;63818;37.134;-8.548;2023-07-31T09:30:00;8.9;;;5.4;;
72123;SDS011;63818;37.134;-8.548;2023-07-31T09:34:46;9.0;;;5.7;;
72123;SDS011;63818;37.134;-8.548;2023-07-31T09:39:33;8.7;;;5.5;;
72123;SDS011;63818;37.134;-8.548;2023-07-31T09:44:41;9.1;;;5.5;;
72123;SDS011;63818;37.134;-8.548;2023-07-31T09:49:27;9.7;;;5.5;;
72123;SDS011;63818;37.134;-8.548;2023-07-31T09:54:15;9.1;;;5.6;;
72123;SDS011;63818;37.134;-8.548;2023-07-31T09:59:01;10.3;;;6.0;;
72123;SDS011;63818;37.134;-8.548;2023-07-31T10:03:49;12.2;;;6.4;;
72123;SDS011;63818;37.134;-8.548;2023-07-31T10:08:38;11.0;;;6.2;;
72123;SDS011;63818;37.134;-8.548;2023-07-31T10:13:25;10.9;;;6.1;;
72123;SDS011;63818;37.134;-8.548;2023-07-31T10:18:13;11.9;;;6.1;;
72123;SDS011;63818;37.134;-8.548;2023-07-31T10:23:00;14.1;;;5.9;;
72123;SDS011;63818;37.134;-8.548;2023-07-31T10:27:47;14.7;;;6.1;;
72123;SDS011;63818;37.134;-8.548;2023-07-31T10:32:34;12.8;;;6.2;;
72123;SDS011;63818;37.134;-8.548;2023-07-31T10:37:22;10.4;;;5.9;;
72123;SDS011;63818;37.134;-8.548;2023-07-31T10:42:13;11.7;;;6.1;;
72123;SDS011;63818;37.134;-8.548;2023-07-31T10:46:59;12.9;;;6.1;;
72123;SDS011;63818;37.134;-8.548;2023-07-31T10:51:46;11.9;;;5.6;;
72123;SDS011;63818;37.134;-8.548;2023-07-31T10:56:36;12.9;;;5.8;;
72123;SDS011;63818;37.134;-8.548;2023-07-31T11:01:23;12.5;;;6.2;;
72123;SDS011;63818;37.134;-8.548;2023-07-31T11:06:16;11.4;;;6.3;;
72123;SDS011;63818;37.134;-8.548;2023-07-31T11:11:09;11.0;;;6.1;;
72123;SDS011;63818;37.134;-8.548;2023-07-31T11:15:57;12.0;;;5.9;;
72123;SDS011;63818;37.134;-8.548;2023-07-31T11:20:44;11.8;;;5.7;;
72123;SDS011;63818;37.134;-8.548;2023-07-31T11:25:30;11.0;;;5.8;;
72123;SDS011;63818;37.134;-8.548;2023-07-31T11:30:17;12.3;;;6.2;;
72123;SDS011;63818;37.134;-8.548;2023-07-31T11:35:07;12.4;;;6.3;;
72123;SDS011;63818;37.134;-8.548;2023-07-31T11:40:01;10.2;;;6.0;;
72123;SDS011;63818;37.134;-8.548;2023-07-31T11:44:47;9.8;;;5.8;;
72123;SDS011;63818;37.134;-8.548;2023-07-31T11:49:33;9.9;;;5.8;;
72123;SDS011;63818;37.134;-8.548;2023-07-31T11:54:22;9.5;;;5.9;;
72123;SDS011;63818;37.134;-8.548;2023-07-31T11:59:09;9.3;;;5.7;;
72123;SDS011;63818;37.134;-8.548;2023-07-31T12:03:55;9.4;;;5.5;;
72123;SDS011;63818;37.134;-8.548;2023-07-31T12:08:42;10.3;;;5.7;;
72123;SDS011;63818;37.134;-8.548;2023-07-31T12:13:31;9.8;;;5.7;;
72123;SDS011;63818;37.134;-8.548;2023-07-31T12:18:18;9.4;;;5.6;;
72123;SDS011;63818;37.134;-8.548;2023-07-31T12:23:06;9.6;;;5.8;;
72123;SDS011;63818;37.134;-8.548;2023-07-31T12:27:52;9.4;;;5.6;;
72123;SDS011;63818;37.134;-8.548;2023-07-31T12:32:39;9.9;;;5.5;;
72123;SDS011;63818;37.134;-8.548;2023-07-31T12:37:26;10.1;;;5.9;;
72123;SDS011;63818;37.134;-8.548;2023-07-31T12:42:11;10.6;;;6.0;;
72123;SDS011;63818;37.134;-8.548;2023-07-31T12:46:57;11.2;;;6.0;;
72123;SDS011;63818;37.134;-8.548;2023-07-31T12:51:44;10.5;;;5.8;;
72123;SDS011;63818;37.134;-8.548;2023-07-31T12:56:30;11.3;;;6.0;;
72123;SDS011;63818;37.134;-8.548;2023-07-31T13:01:16;12.1;;;6.2;;
72123;SDS011;63818;37.134;-8.548;2023-07-31T13:06:02;12.7;;;6.0;;
72123;SDS011;63818;37.134;-8.548;2023-07-31T13:10:49;12.3;;;6.1;;
72123;SDS011;63818;37.134;-8.548;2023-07-31T13:15:35;11.3;;;5.9;;
72123;SDS011;63818;37.134;-8.548;2023-07-31T13:20:21;11.1;;;5.6;;
72123;SDS011;63818;37.134;-8.548;2023-07-31T13:25:07;11.0;;;5.5;;
72123;SDS011;63818;37.134;-8.548;2023-07-31T13:29:53;12.6;;;5.6;;
72123;SDS011;63818;37.134;-8.548;2023-07-31T13:34:40;13.4;;;5.7;;
72123;SDS011;63818;37.134;-8.548;2023-07-31T13:39:26;10.9;;;5.6;;
72123;SDS011;63818;37.134;-8.548;2023-07-31T13:44:14;11.2;;;5.6;;
72123;SDS011;63818;37.134;-8.548;2023-07-31T13:49:00;12.2;;;5.6;;
72123;SDS011;63818;37.134;-8.548;2023-07-31T13:53:47;13.0;;;5.6;;
72123;SDS011;63818;37.134;-8.548;2023-07-31T13:58:34;11.8;;;5.7;;
72123;SDS011;63818;37.134;-8.548;2023-07-31T14:03:20;9.7;;;5.5;;
72123;SDS011;63818;37.134;-8.548;2023-07-31T14:08:09;11.7;;;5.4;;
72123;SDS011;63818;37.134;-8.548;2023-07-31T14:12:55;11.5;;;5.5;;
72123;SDS011;63818;37.134;-8.548;2023-07-31T14:17:46;10.8;;;5.7;;
72123;SDS011;63818;37.134;-8.548;2023-07-31T14:22:32;11.6;;;5.9;;
72123;SDS011;63818;37.134;-8.548;2023-07-31T14:27:19;12.7;;;6.1;;
72123;SDS011;63818;37.134;-8.548;2023-07-31T14:32:06;13.2;;;5.8;;
72123;SDS011;63818;37.134;-8.548;2023-07-31T14:36:52;13.0;;;5.4;;
72123;SDS011;63818;37.134;-8.548;2023-07-31T14:41:38;12.3;;;5.5;;
72123;SDS011;63818;37.134;-8.548;2023-07-31T14:46:24;11.1;;;5.4;;
72123;SDS011;63818;37.134;-8.548;2023-07-31T14:51:10;13.5;;;5.4;;
72123;SDS011;63818;37.134;-8.548;2023-07-31T14:55:56;14.1;;;5.5;;
72123;SDS011;63818;37.134;-8.548;2023-07-31T15:00:42;12.8;;;5.5;;
72123;SDS011;63818;37.134;-8.548;2023-07-31T15:05:28;13.5;;;5.7;;
72123;SDS011;63818;37.134;-8.548;2023-07-31T15:10:14;14.2;;;5.8;;
72123;SDS011;63818;37.134;-8.548;2023-07-31T15:15:03;12.7;;;5.4;;
72123;SDS011;63818;37.134;-8.548;2023-07-31T15:19:53;11.1;;;5.3;;
72123;SDS011;63818;37.134;-8.548;2023-07-31T15:24:39;11.5;;;5.6;;
72123;SDS011;63818;37.134;-8.548;2023-07-31T15:29:25;12.5;;;5.5;;
72123;SDS011;63818;37.134;-8.548;2023-07-31T15:34:12;14.1;;;5.3;;
72123;SDS011;63818;37.134;-8.548;2023-07-31T15:39:01;13.8;;;5.4;;
72123;SDS011;63818;37.134;-8.548;2023-07-31T15:43:46;11.7;;;5.6;;
72123;SDS011;63818;37.134;-8.548;2023-07-31T15:48:33;10.3;;;5.6;;
72123;SDS011;63818;37.134;-8.548;2023-07-31T15:53:19;11.3;;;5.6;;
72123;SDS011;63818;37.134;-8.548;2023-07-31T15:58:04;12.4;;;5.5;;
72123;SDS011;63818;37.134;-8.548;2023-07-31T16:02:51;11.5;;;5.6;;
72123;SDS011;63818;37.134;-8.548;2023-07-31T16:07:37;11.9;;;5.6;;
72123;SDS011;63818;37.134;-8.548;2023-07-31T16:12:23;15.8;;;5.5;;
72123;SDS011;63818;37.134;-8.548;2023-07-31T16:17:09;16.0;;;5.8;;
72123;SDS011;63818;37.134;-8.548;2023-07-31T16:21:54;12.3;;;5.8;;
72123;SDS011;63818;37.134;-8.548;2023-07-31T16:26:43;15.5;;;6.1;;
72123;SDS011;63818;37.134;-8.548;2023-07-31T16:31:28;20.7;;;6.0;;
72123;SDS011;63818;37.134;-8.548;2023-07-31T16:36:14;16.0;;;5.6;;
72123;SDS011;63818;37.134;-8.548;2023-07-31T16:41:00;15.6;;;5.9;;
72123;SDS011;63818;37.134;-8.548;2023-07-31T16:45:46;16.3;;;5.6;;
72123;SDS011;63818;37.134;-8.548;2023-07-31T16:50:32;13.4;;;5.7;;
72123;SDS011;63818;37.134;-8.548;2023-07-31T16:55:19;13.4;;;5.9;;
72123;SDS011;63818;37.134;-8.548;2023-07-31T17:00:05;10.7;;;5.6;;
72123;SDS011;63818;37.134;-8.548;2023-07-31T17:04:52;14.4;;;5.3;;
72123;SDS011;63818;37.134;-8.548;2023-07-31T17:09:38;16.3;;;5.5;;
72123;SDS011;63818;37.134;-8.548;2023-07-31T17:14:24;13.7;;;5.8;;
72123;SDS011;63818;37.134;-8.548;2023-07-31T17:19:10;14.5;;;5.6;;
72123;SDS011;63818;37.134;-8.548;2023-07-31T17:23:57;12.3;;;5.6;;
72123;SDS011;63818;37.134;-8.548;2023-07-31T17:28:43;13.7;;;5.6;;
72123;SDS011;63818;37.134;-8.548;2023-07-31T17:33:31;15.6;;;5.6;;
72123;SDS011;63818;37.134;-8.548;2023-07-31T17:38:17;12.4;;;5.5;;
72123;SDS011;63818;37.134;-8.548;2023-07-31T17:43:03;12.4;;;5.5;;
72123;SDS011;63818;37.134;-8.548;2023-07-31T17:47:50;12.5;;;5.7;;
72123;SDS011;63818;37.134;-8.548;2023-07-31T17:52:36;10.1;;;5.4;;
72123;SDS011;63818;37.134;-8.548;2023-07-31T17:57:22;14.0;;;5.8;;
72123;SDS011;63818;37.134;-8.548;2023-07-31T18:02:08;15.2;;;6.1;;
72123;SDS011;63818;37.134;-8.548;2023-07-31T18:06:54;14.1;;;5.5;;
72123;SDS011;63818;37.134;-8.548;2023-07-31T18:11:40;15.8;;;5.4;;
72123;SDS011;63818;37.134;-8.548;2023-07-31T18:16:27;13.2;;;5.7;;
72123;SDS011;63818;37.134;-8.548;2023-07-31T18:21:13;10.7;;;5.7;;
72123;SDS011;63818;37.134;-8.548;2023-07-31T18:25:59;13.8;;;6.0;;
72123;SDS011;63818;37.134;-8.548;2023-07-31T18:30:45;15.6;;;6.0;;
72123;SDS011;63818;37.134;-8.548;2023-07-31T18:35:33;14.4;;;6.1;;
72123;SDS011;63818;37.134;-8.548;2023-07-31T18:40:22;12.9;;;6.1;;
72123;SDS011;63818;37.134;-8.548;2023-07-31T18:45:10;11.6;;;5.7;;
72123;SDS011;63818;37.134;-8.548;2023-07-31T18:50:02;11.9;;;5.5;;
72123;SDS011;63818;37.134;-8.548;2023-07-31T18:54:48;11.9;;;5.4;;
72123;SDS011;63818;37.134;-8.548;2023-07-31T18:59:34;12.3;;;5.6;;
72123;SDS011;63818;37.134;-8.548;2023-07-31T19:04:21;11.7;;;5.5;;
72123;SDS011;63818;37.134;-8.548;2023-07-31T19:09:09;12.4;;;5.4;;
72123;SDS011;63818;37.134;-8.548;2023-07-31T19:13:56;12.7;;;5.5;;
72123;SDS011;63818;37.134;-8.548;2023-07-31T19:18:42;11.1;;;5.6;;
72123;SDS011;63818;37.134;-8.548;2023-07-31T19:23:29;10.2;;;5.4;;
72123;SDS011;63818;37.134;-8.548;2023-07-31T19:28:15;11.7;;;5.4;;
72123;SDS011;63818;37.134;-8.548;2023-07-31T19:33:00;14.5;;;5.8;;
72123;SDS011;63818;37.134;-8.548;2023-07-31T19:37:46;14.5;;;5.9;;
72123;SDS011;63818;37.134;-8.548;2023-07-31T19:42:33;13.0;;;5.5;;
72123;SDS011;63818;37.134;-8.548;2023-07-31T19:47:19;11.4;;;5.6;;
72123;SDS011;63818;37.134;-8.548;2023-07-31T19:52:05;11.0;;;5.6;;
72123;SDS011;63818;37.134;-8.548;2023-07-31T19:56:53;10.4;;;5.4;;
72123;SDS011;63818;37.134;-8.548;2023-07-31T20:01:39;9.1;;;5.1;;
72123;SDS011;63818;37.134;-8.548;2023-07-31T20:06:28;9.8;;;5.2;;
72123;SDS011;63818;37.134;-8.548;2023-07-31T20:11:14;9.9;;;5.3;;
72123;SDS011;63818;37.134;-8.548;2023-07-31T20:16:00;11.1;;;5.6;;
72123;SDS011;63818;37.134;-8.548;2023-07-31T20:20:46;12.5;;;5.6;;
72123;SDS011;63818;37.134;-8.548;2023-07-31T20:25:32;10.8;;;5.1;;
72123;SDS011;63818;37.134;-8.548;2023-07-31T20:30:19;12.1;;;5.3;;
72123;SDS011;63818;37.134;-8.548;2023-07-31T20:35:05;13.2;;;5.6;;
72123;SDS011;63818;37.134;-8.548;2023-07-31T20:39:51;11.3;;;5.5;;
72123;SDS011;63818;37.134;-8.548;2023-07-31T20:44:37;12.8;;;5.7;;
72123;SDS011;63818;37.134;-8.548;2023-07-31T20:49:23;12.2;;;5.7;;
72123;SDS011;63818;37.134;-8.548;2023-07-31T20:54:09;10.5;;;5.4;;
72123;SDS011;63818;37.134;-8.548;2023-07-31T20:58:55;10.2;;;5.4;;
72123;SDS011;63818;37.134;-8.548;2023-07-31T21:03:41;10.9;;;5.4;;
72123;SDS011;63818;37.134;-8.548;2023-07-31T21:08:28;11.5;;;5.4;;
72123;SDS011;63818;37.134;-8.548;2023-07-31T21:13:16;10.0;;;5.3;;
72123;SDS011;63818;37.134;-8.548;2023-07-31T21:18:02;9.6;;;4.9;;
72123;SDS011;63818;37.134;-8.548;2023-07-31T21:22:48;9.3;;;4.9;;
72123;SDS011;63818;37.134;-8.548;2023-07-31T21:27:34;9.4;;;5.2;;
72123;SDS011;63818;37.134;-8.548;2023-07-31T21:32:20;10.0;;;5.4;;
72123;SDS011;63818;37.134;-8.548;2023-07-31T21:37:06;9.7;;;5.4;;
72123;SDS011;63818;37.134;-8.548;2023-07-31T21:41:55;9.6;;;5.3;;
72123;SDS011;63818;37.134;-8.548;2023-07-31T21:46:41;11.0;;;5.6;;
72123;SDS011;63818;37.134;-8.548;2023-07-31T21:51:29;11.3;;;5.6;;
72123;SDS011;63818;37.134;-8.548;2023-07-31T21:56:15;13.5;;;5.6;;
72123;SDS011;63818;37.134;-8.548;2023-07-31T22:01:01;14.5;;;5.7;;
72123;SDS011;63818;37.134;-8.548;2023-07-31T22:05:47;10.6;;;5.2;;
72123;SDS011;63818;37.134;-8.548;2023-07-31T22:10:33;11.9;;;5.1;;
72123;SDS011;63818;37.134;-8.548;2023-07-31T22:15:19;12.3;;;5.0;;
72123;SDS011;63818;37.134;-8.548;2023-07-31T22:20:07;9.1;;;4.9;;
72123;SDS011;63818;37.134;-8.548;2023-07-31T22:24:53;10.0;;;5.0;;
72123;SDS011;63818;37.134;-8.548;2023-07-31T22:29:39;11.5;;;5.0;;
72123;SDS011;63818;37.134;-8.548;2023-07-31T22:34:26;11.2;;;5.1;;
72123;SDS011;63818;37.134;-8.548;2023-07-31T22:39:12;10.5;;;4.9;;
72123;SDS011;63818;37.134;-8.548;2023-07-31T22:43:58;8.7;;;4.7;;
72123;SDS011;63818;37.134;-8.548;2023-07-31T22:48:44;7.8;;;4.7;;
72123;SDS011;63818;37.134;-8.548;2023-07-31T22:53:30;8.6;;;4.7;;
72123;SDS011;63818;37.134;-8.548;2023-07-31T22:58:16;8.9;;;5.0;;
72123;SDS011;63818;37.134;-8.548;2023-07-31T23:03:02;8.7;;;5.1;;
72123;SDS011;63818;37.134;-8.548;2023-07-31T23:07:48;8.6;;;4.9;;
72123;SDS011;63818;37.134;-8.548;2023-07-31T23:12:33;9.9;;;5.1;;
72123;SDS011;63818;37.134;-8.548;2023-07-31T23:17:19;15.1;;;5.3;;
72123;SDS011;63818;37.134;-8.548;2023-07-31T23:22:07;14.2;;;5.1;;
72123;SDS011;63818;37.134;-8.548;2023-07-31T23:26:55;8.6;;;4.8;;
72123;SDS011;63818;37.134;-8.548;2023-07-31T23:31:43;9.0;;;4.7;;
72123;SDS011;63818;37.134;-8.548;2023-07-31T23:36:29;9.2;;;4.8;;
72123;SDS011;63818;37.134;-8.548;2023-07-31T23:41:16;7.8;;;4.8;;
72123;SDS011;63818;37.134;-8.548;2023-07-31T23:46:02;8.1;;;4.9;;
72123;SDS011;63818;37.134;-8.548;2023-07-31T23:50:48;9.1;;;4.9;;
72123;SDS011;63818;37.134;-8.548;2023-07-31T23:55:34;8.6;;;4.7;;
